createdAt,value
2023-04-13T00:00:12.965Z,100924.03
2023-04-13T00:02:39.991Z,100925.41
2023-04-13T00:05:08.346Z,100908.09
2023-04-13T00:07:35.262Z,100934.34
2023-04-13T00:10:03.551Z,100939.38
2023-04-13T00:12:30.966Z,100848.00
2023-04-13T00:14:57.769Z,100932.34
2023-04-13T00:17:26.548Z,100931.22
2023-04-13T00:19:54.035Z,100902.41
2023-04-13T00:22:20.800Z,100939.63
2023-04-13T00:24:48.084Z,100926.13
2023-04-13T00:27:15.000Z,100892.31
2023-04-13T00:29:41.933Z,100912.75
2023-04-13T00:32:08.680Z,100935.72
2023-04-13T00:34:36.250Z,100904.38
2023-04-13T00:37:04.092Z,100908.59
2023-04-13T00:39:31.601Z,100900.53
2023-04-13T00:42:02.444Z,100949.50
2023-04-13T00:44:30.907Z,100956.78
2023-04-13T00:46:57.723Z,100948.13
2023-04-13T00:49:24.677Z,100939.19
2023-04-13T00:51:51.515Z,100933.66
2023-04-13T00:54:18.649Z,100952.09
2023-04-13T00:56:45.517Z,100957.75
2023-04-13T00:59:13.002Z,100952.13
2023-04-13T01:01:46.821Z,100945.75
2023-04-13T01:04:14.204Z,100942.63
2023-04-13T01:06:45.215Z,100899.59
2023-04-13T01:09:15.501Z,100831.97
2023-04-13T01:11:54.254Z,100944.38
2023-04-13T01:14:25.022Z,100923.41
2023-04-13T01:16:57.572Z,100936.00
2023-04-13T01:19:44.583Z,100932.66
2023-04-13T01:22:14.599Z,100934.91
2023-04-13T01:24:53.719Z,100948.31
2023-04-13T01:27:55.499Z,100933.22
2023-04-13T01:30:23.866Z,100893.78
2023-04-13T01:32:51.799Z,100926.50
2023-04-13T01:35:22.914Z,100931.53
2023-04-13T01:37:52.944Z,100876.44
2023-04-13T01:40:21.546Z,100902.41
2023-04-13T01:42:48.311Z,100923.13
2023-04-13T01:45:25.170Z,100911.91
2023-04-13T01:48:31.744Z,100918.09
2023-04-13T01:51:01.621Z,100896.53
2023-04-13T01:53:28.983Z,100906.34
2023-04-13T01:55:55.959Z,100903.00
2023-04-13T01:58:23.680Z,100925.66
2023-04-13T02:00:50.770Z,100897.13
2023-04-13T02:03:18.402Z,100942.44
2023-04-13T02:05:46.265Z,100901.34
2023-04-13T02:08:14.030Z,100910.84
2023-04-13T02:10:42.590Z,100907.47
2023-04-13T02:13:12.096Z,100929.81
2023-04-13T02:15:38.968Z,100917.81
2023-04-13T02:18:06.282Z,100932.06
2023-04-13T02:20:40.464Z,100928.09
2023-04-13T02:23:09.171Z,100891.16
2023-04-13T02:25:36.423Z,100920.22
2023-04-13T02:28:03.471Z,100831.91
2023-04-13T02:30:30.359Z,100901.78
2023-04-13T02:32:57.405Z,100905.41
2023-04-13T02:35:25.909Z,100862.63
2023-04-13T02:37:52.665Z,100916.88
2023-04-13T02:40:21.131Z,100912.09
2023-04-13T02:42:48.538Z,100867.34
2023-04-13T02:45:18.133Z,100866.78
2023-04-13T02:47:45.243Z,100897.78
2023-04-13T02:50:12.815Z,100901.72
2023-04-13T02:52:39.583Z,100901.19
2023-04-13T02:55:08.407Z,100902.59
2023-04-13T02:57:35.163Z,100902.03
2023-04-13T03:00:01.917Z,100853.13
2023-04-13T03:02:30.318Z,100896.22
2023-04-13T03:04:57.552Z,100895.13
2023-04-13T03:07:24.830Z,100868.91
2023-04-13T03:09:53.237Z,100862.78
2023-04-13T03:12:20.383Z,100900.25
2023-04-13T03:14:47.254Z,100806.25
2023-04-13T03:17:14.979Z,100903.59
2023-04-13T03:19:42.068Z,100896.88
2023-04-13T03:22:10.230Z,100902.72
2023-04-13T03:24:37.476Z,100895.75
2023-04-13T03:27:04.343Z,100896.84
2023-04-13T03:29:32.103Z,100883.16
2023-04-13T03:31:58.932Z,100862.44
2023-04-13T03:34:25.727Z,100898.25
2023-04-13T03:36:53.239Z,100886.22
2023-04-13T03:39:20.004Z,100890.69
2023-04-13T03:41:47.186Z,100893.78
2023-04-13T03:44:14.145Z,100895.16
2023-04-13T03:46:41.544Z,100882.28
2023-04-13T03:49:11.454Z,100863.25
2023-04-13T03:51:38.197Z,100899.34
2023-04-13T03:54:05.086Z,100859.34
2023-04-13T03:56:31.820Z,100890.66
2023-04-13T03:58:59.318Z,100872.44
2023-04-13T04:01:27.209Z,100902.38
2023-04-13T04:03:57.242Z,100904.03
2023-04-13T04:06:24.803Z,100896.75
2023-04-13T04:08:51.629Z,100870.72
2023-04-13T04:11:18.498Z,100899.00
2023-04-13T04:13:45.691Z,100878.31
2023-04-13T04:16:12.782Z,100897.88
2023-04-13T04:18:39.549Z,100895.34
2023-04-13T04:21:07.246Z,100857.53
2023-04-13T04:23:37.920Z,100899.50
2023-04-13T04:26:05.253Z,100904.53
2023-04-13T04:28:32.400Z,100892.22
2023-04-13T04:31:01.415Z,100907.34
2023-04-13T04:33:28.272Z,100912.94
2023-04-13T04:35:56.161Z,100916.31
2023-04-13T04:38:23.666Z,100926.94
2023-04-13T04:40:50.616Z,100926.41
2023-04-13T04:43:17.828Z,100892.81
2023-04-13T04:45:45.625Z,100892.25
2023-04-13T04:48:15.347Z,100910.44
2023-04-13T04:50:45.294Z,100878.19
2023-04-13T04:53:12.438Z,100897.22
2023-04-13T04:55:39.527Z,100932.50
2023-04-13T04:58:06.937Z,100898.31
2023-04-13T05:00:33.880Z,100931.38
2023-04-13T05:03:01.811Z,100908.41
2023-04-13T05:05:30.781Z,100900.25
2023-04-13T05:07:57.993Z,100935.78
2023-04-13T05:10:27.147Z,100912.22
2023-04-13T05:12:54.356Z,100923.09
2023-04-13T05:15:21.295Z,100939.91
2023-04-13T05:17:51.236Z,100943.81
2023-04-13T05:20:19.572Z,100945.25
2023-04-13T05:22:46.421Z,100945.78
2023-04-13T05:25:14.847Z,100948.28
2023-04-13T05:27:41.797Z,100949.66
2023-04-13T05:30:09.740Z,100961.59
2023-04-13T05:32:36.830Z,100955.41
2023-04-13T05:35:04.604Z,100956.53
2023-04-13T05:37:32.106Z,100953.16
2023-04-13T05:39:59.158Z,100940.47
2023-04-13T05:42:25.994Z,100944.66
2023-04-13T05:44:52.805Z,100918.47
2023-04-13T05:47:22.154Z,100946.47
2023-04-13T05:49:48.972Z,100953.19
2023-04-13T05:52:15.887Z,100962.16
2023-04-13T05:54:42.805Z,100866.31
2023-04-13T05:57:09.628Z,100981.09
2023-04-13T05:59:37.034Z,100979.03
2023-04-13T06:02:04.059Z,100990.34
2023-04-13T06:04:31.631Z,100898.34
2023-04-13T06:06:59.286Z,100978.78
2023-04-13T06:09:26.188Z,100998.78
2023-04-13T06:11:54.465Z,101004.47
2023-04-13T06:14:22.308Z,100993.38
2023-04-13T06:16:49.222Z,101004.63
2023-04-13T06:19:16.076Z,100993.47
2023-04-13T06:21:42.950Z,100986.53
2023-04-13T06:24:09.914Z,100973.50
2023-04-13T06:26:37.551Z,100948.50
2023-04-13T06:29:04.509Z,100896.88
2023-04-13T06:31:31.946Z,100983.69
2023-04-13T06:33:58.721Z,100974.06
2023-04-13T06:36:25.860Z,100983.00
2023-04-13T06:38:52.636Z,101004.56
2023-04-13T06:41:19.461Z,101004.38
2023-04-13T06:43:46.725Z,101002.16
2023-04-13T06:46:14.759Z,100997.63
2023-04-13T06:48:41.824Z,101009.94
2023-04-13T06:51:08.753Z,100958.41
2023-04-13T06:53:35.820Z,100942.41
2023-04-13T06:56:02.582Z,101010.88
2023-04-13T06:58:29.533Z,101015.13
2023-04-13T07:00:56.357Z,101004.00
2023-04-13T07:03:23.332Z,101011.88
2023-04-13T07:05:50.505Z,100989.00
2023-04-13T07:08:19.423Z,101008.97
2023-04-13T07:10:46.798Z,100998.47
2023-04-13T07:13:13.883Z,101015.13
2023-04-13T07:15:40.823Z,101015.13
2023-04-13T07:18:07.671Z,101021.72
2023-04-13T07:20:35.873Z,101006.38
2023-04-13T07:23:02.743Z,101008.38
2023-04-13T07:25:29.509Z,101034.78
2023-04-13T07:27:56.556Z,101047.41
2023-04-13T07:30:23.421Z,101013.56
2023-04-13T07:32:50.255Z,101032.38
2023-04-13T07:35:17.159Z,101001.84
2023-04-13T07:37:44.782Z,100994.31
2023-04-13T07:40:12.184Z,101026.19
2023-04-13T07:42:39.630Z,101027.25
2023-04-13T07:45:07.535Z,101019.84
2023-04-13T07:47:34.345Z,101018.69
2023-04-13T07:50:01.226Z,101017.63
2023-04-13T07:52:28.875Z,101004.19
2023-04-13T07:54:55.692Z,101015.13
2023-04-13T07:57:22.483Z,101041.72
2023-04-13T07:59:49.533Z,101040.03
2023-04-13T08:02:18.139Z,101001.41
2023-04-13T08:04:45.043Z,101050.16
2023-04-13T08:07:11.995Z,101039.78
2023-04-13T08:09:40.307Z,101007.59
2023-04-13T08:12:08.371Z,101043.94
2023-04-13T08:14:35.623Z,101014.84
2023-04-13T08:17:04.435Z,101046.47
2023-04-13T08:19:31.220Z,101029.38
2023-04-13T08:21:58.711Z,101018.22
2023-04-13T08:24:26.020Z,101039.19
2023-04-13T08:26:55.230Z,101049.59
2023-04-13T08:29:24.319Z,101041.81
2023-04-13T08:31:51.579Z,101059.16
2023-04-13T08:34:18.749Z,101027.81
2023-04-13T08:36:48.351Z,101053.03
2023-04-13T08:39:15.227Z,101082.66
2023-04-13T08:41:45.937Z,101082.38
2023-04-13T08:44:13.755Z,101049.53
2023-04-13T08:46:42.514Z,101051.03
2023-04-13T08:49:10.826Z,101060.44
2023-04-13T08:51:38.210Z,101084.38
2023-04-13T08:54:05.631Z,101068.69
2023-04-13T08:56:44.393Z,101077.66
2023-04-13T08:59:13.113Z,101041.19
2023-04-13T09:01:39.950Z,101043.22
2023-04-13T09:04:11.853Z,101060.78
2023-04-13T09:06:43.355Z,101077.72
2023-04-13T09:09:16.502Z,101077.69
2023-04-13T09:11:46.168Z,101070.19
2023-04-13T09:14:14.076Z,101081.19
2023-04-13T09:16:44.042Z,101085.03
2023-04-13T09:19:13.100Z,101090.19
2023-04-13T09:21:45.029Z,101075.78
2023-04-13T09:24:13.011Z,101082.47
2023-04-13T09:26:46.792Z,101030.56
2023-04-13T09:29:14.998Z,101069.44
2023-04-13T09:31:44.412Z,101067.44
2023-04-13T09:34:12.112Z,101073.44
2023-04-13T09:36:49.498Z,101072.16
2023-04-13T09:39:29.905Z,101041.78
2023-04-13T09:41:58.374Z,101086.16
2023-04-13T09:44:27.628Z,101084.00
2023-04-13T09:47:01.413Z,101091.00
2023-04-13T09:49:41.225Z,101081.50
2023-04-13T09:52:19.061Z,101097.84
2023-04-13T09:54:50.081Z,101089.44
2023-04-13T09:57:30.902Z,101071.22
2023-04-13T10:00:00.932Z,101119.06
2023-04-13T10:02:28.385Z,101039.03
2023-04-13T10:04:56.078Z,101105.94
2023-04-13T10:07:26.908Z,101140.28
2023-04-13T10:09:54.520Z,101119.78
2023-04-13T10:12:21.359Z,101073.50
2023-04-13T10:14:48.953Z,101129.47
2023-04-13T10:17:40.254Z,101144.69
2023-04-13T10:20:10.453Z,101129.06
2023-04-13T10:22:37.905Z,101136.09
2023-04-13T10:25:07.256Z,101135.69
2023-04-13T10:27:36.583Z,101132.09
2023-04-13T10:30:13.231Z,101139.00
2023-04-13T10:32:40.084Z,101110.06
2023-04-13T10:35:13.640Z,101128.44
2023-04-13T10:37:41.766Z,101139.16
2023-04-13T10:40:13.517Z,101122.06
2023-04-13T10:42:52.448Z,101102.88
2023-04-13T10:45:24.288Z,101128.31
2023-04-13T10:47:51.280Z,101120.25
2023-04-13T10:50:22.851Z,101110.22
2023-04-13T10:53:05.887Z,101119.31
2023-04-13T10:55:33.304Z,101083.00
2023-04-13T10:58:00.690Z,101115.56
2023-04-13T11:00:42.470Z,101097.88
2023-04-13T11:03:15.720Z,101102.53
2023-04-13T11:05:43.819Z,101108.06
2023-04-13T11:08:19.063Z,101108.72
2023-04-13T11:10:56.213Z,101103.00
2023-04-13T11:13:25.535Z,101088.09
2023-04-13T11:15:52.154Z,101100.84
2023-04-13T11:18:28.446Z,101102.63
2023-04-13T11:20:55.421Z,101093.44
2023-04-13T11:23:24.234Z,101104.31
2023-04-13T11:25:55.175Z,101111.47
2023-04-13T11:28:23.047Z,101100.38
2023-04-13T11:30:58.749Z,101102.38
2023-04-13T11:33:30.154Z,101087.16
2023-04-13T11:35:58.956Z,101071.75
2023-04-13T11:38:25.859Z,101100.75
2023-04-13T11:40:58.852Z,101100.59
2023-04-13T11:43:28.898Z,101110.53
2023-04-13T11:45:55.680Z,101108.84
2023-04-13T11:48:22.478Z,101108.47
2023-04-13T11:50:49.334Z,101102.41
2023-04-13T11:53:16.862Z,101123.50
2023-04-13T11:55:52.783Z,101124.31
2023-04-13T11:58:21.098Z,101130.47
2023-04-13T12:00:48.404Z,101122.53
2023-04-13T12:05:48.061Z,101105.06
2023-04-13T12:08:25.500Z,101109.06
2023-04-13T12:19:09.862Z,101089.00
2023-04-13T12:21:37.097Z,101097.34
2023-04-13T12:24:05.777Z,101094.03
2023-04-13T12:27:16.960Z,101102.41
2023-04-13T12:29:28.376Z,101042.28
2023-04-13T12:32:03.963Z,101092.00
2023-04-13T12:34:31.037Z,101099.31
2023-04-13T12:36:58.242Z,101100.09
2023-04-13T12:39:25.027Z,101099.09
2023-04-13T12:41:52.649Z,101101.03
2023-04-13T12:44:19.404Z,101096.47
2023-04-13T12:46:46.653Z,101082.28
2023-04-13T12:49:13.482Z,101088.22
2023-04-13T12:51:40.499Z,101093.66
2023-04-13T12:54:13.305Z,101091.34
2023-04-13T12:56:41.007Z,101095.38
2023-04-13T12:59:07.933Z,101098.84
2023-04-13T13:01:37.866Z,101051.38
2023-04-13T13:04:05.605Z,101071.13
2023-04-13T13:06:34.279Z,101079.66
2023-04-13T13:09:01.438Z,101079.78
2023-04-13T13:11:28.694Z,101075.56
2023-04-13T13:13:55.900Z,101062.38
2023-04-13T13:16:22.686Z,101079.81
2023-04-13T13:18:51.541Z,101074.88
2023-04-13T13:21:18.759Z,101078.66
2023-04-13T13:23:46.136Z,101079.78
2023-04-13T13:28:42.913Z,101073.34
2023-04-13T13:31:09.722Z,101064.66
2023-04-13T13:33:36.818Z,101046.94
2023-04-13T13:36:04.954Z,101070.44
2023-04-13T13:38:31.693Z,101072.59
2023-04-13T13:40:58.535Z,101036.50
2023-04-13T13:43:25.689Z,101037.50
2023-04-13T13:45:53.973Z,101065.78
2023-04-13T13:48:21.925Z,101040.53
2023-04-13T13:50:49.263Z,101031.84
2023-04-13T13:53:16.091Z,101056.88
2023-04-13T13:55:42.917Z,101068.31
2023-04-13T13:58:09.869Z,100978.78
2023-04-13T14:00:36.939Z,101050.91
2023-04-13T14:03:04.021Z,101058.69
2023-04-13T14:05:30.931Z,101068.47
2023-04-13T14:07:57.654Z,101065.91
2023-04-13T14:10:24.574Z,101057.69
2023-04-13T14:12:52.966Z,100963.75
2023-04-13T14:15:19.696Z,101023.03
2023-04-13T14:17:55.555Z,101050.09
2023-04-13T14:20:39.261Z,101053.84
2023-04-13T14:23:06.902Z,101039.41
2023-04-13T14:25:33.657Z,101071.34
2023-04-13T14:28:01.064Z,101056.56
2023-04-13T14:30:28.572Z,101021.50
2023-04-13T14:32:56.475Z,101057.03
2023-04-13T14:35:24.236Z,101048.81
2023-04-13T14:37:51.538Z,101052.16
2023-04-13T14:40:22.111Z,101049.66
2023-04-13T14:42:50.980Z,101047.28
2023-04-13T14:45:18.111Z,101012.50
2023-04-13T14:47:44.895Z,101042.50
2023-04-13T14:50:12.232Z,101006.16
2023-04-13T14:52:40.027Z,100994.03
2023-04-13T14:55:07.157Z,101035.88
2023-04-13T14:57:33.867Z,101011.72
2023-04-13T15:00:00.700Z,101029.34
2023-04-13T15:02:28.420Z,101029.72
2023-04-13T15:04:56.070Z,101031.25
2023-04-13T15:07:30.063Z,101031.47
2023-04-13T15:09:59.123Z,100995.56
2023-04-13T15:12:25.947Z,101029.66
2023-04-13T15:14:52.932Z,100975.56
2023-04-13T15:17:21.175Z,101026.00
2023-04-13T15:19:48.033Z,101034.28
2023-04-13T15:22:14.907Z,101010.91
2023-04-13T15:24:41.623Z,100977.78
2023-04-13T15:27:08.401Z,101019.19
2023-04-13T15:29:35.356Z,100991.44
2023-04-13T15:32:02.409Z,101031.44
2023-04-13T15:34:29.251Z,100992.13
2023-04-13T15:36:57.160Z,101032.22
2023-04-13T15:39:23.897Z,101034.03
2023-04-13T15:41:52.797Z,100990.47
2023-04-13T15:44:19.584Z,101022.19
2023-04-13T15:46:48.207Z,101016.97
2023-04-13T15:49:15.150Z,100999.44
2023-04-13T15:51:42.529Z,101001.75
2023-04-13T15:54:09.356Z,101009.91
2023-04-13T15:56:36.546Z,101013.38
2023-04-13T15:59:03.270Z,101017.25
2023-04-13T16:01:45.686Z,100983.81
2023-04-13T16:04:12.739Z,101012.47
2023-04-13T16:06:39.976Z,101020.84
2023-04-13T16:09:09.920Z,101015.19
2023-04-13T16:11:39.994Z,100959.50
2023-04-13T16:14:09.588Z,100955.97
2023-04-13T16:16:46.870Z,101000.97
2023-04-13T16:19:14.144Z,101005.16
2023-04-13T16:21:43.655Z,100973.78
2023-04-13T16:24:10.789Z,100991.38
2023-04-13T16:26:38.045Z,101004.09
2023-04-13T16:29:05.266Z,100978.28
2023-04-13T16:31:32.127Z,100959.91
2023-04-13T16:33:59.121Z,101009.19
2023-04-13T16:36:26.064Z,100997.78
2023-04-13T16:38:53.165Z,100962.22
2023-04-13T16:41:20.048Z,100998.06
2023-04-13T16:43:46.886Z,100952.63
2023-04-13T16:46:17.122Z,100966.19
2023-04-13T16:48:44.059Z,100978.00
2023-04-13T16:51:10.868Z,101016.28
2023-04-13T16:53:38.319Z,100984.19
2023-04-13T16:56:05.516Z,101022.47
2023-04-13T16:58:32.992Z,101022.88
2023-04-13T17:00:59.908Z,101004.09
2023-04-13T17:03:27.135Z,100973.75
2023-04-13T17:05:55.071Z,100964.78
2023-04-13T17:08:21.893Z,100995.88
2023-04-13T17:10:51.692Z,101001.66
2023-04-13T17:13:18.472Z,100996.56
2023-04-13T17:15:45.215Z,100978.16
2023-04-13T17:18:12.449Z,100978.78
2023-04-13T17:20:39.889Z,100974.44
2023-04-13T17:23:06.687Z,101007.41
2023-04-13T17:25:35.125Z,101006.38
2023-04-13T17:28:02.166Z,100968.59
2023-04-13T17:30:29.073Z,100979.75
2023-04-13T17:32:56.157Z,101008.81
2023-04-13T17:35:23.068Z,100972.34
2023-04-13T17:37:49.902Z,101016.25
2023-04-13T17:40:17.166Z,100976.00
2023-04-13T17:42:44.329Z,100870.69
2023-04-13T17:45:11.714Z,101000.16
2023-04-13T17:47:38.689Z,101004.34
2023-04-13T17:50:06.030Z,101009.78
2023-04-13T17:52:32.851Z,101019.16
2023-04-13T17:54:59.709Z,101005.81
2023-04-13T17:57:26.655Z,100994.94
2023-04-13T17:59:53.401Z,100998.69
2023-04-13T18:02:20.732Z,100985.25
2023-04-13T18:04:48.446Z,100987.78
2023-04-13T18:07:15.592Z,100970.84
2023-04-13T18:09:42.481Z,100969.59
2023-04-13T18:12:09.216Z,100976.25
2023-04-13T18:14:35.974Z,100970.47
2023-04-13T18:17:02.883Z,101000.13
2023-04-13T18:19:32.389Z,101016.97
2023-04-13T18:21:59.239Z,101004.44
2023-04-13T18:24:26.368Z,101000.22
2023-04-13T18:26:53.120Z,101013.16
2023-04-13T18:29:19.965Z,101014.63
2023-04-13T18:31:46.951Z,101006.03
2023-04-13T18:34:13.980Z,100995.81
2023-04-13T18:36:41.912Z,101000.31
2023-04-13T18:39:08.939Z,101006.47
2023-04-13T18:41:36.013Z,101014.41
2023-04-13T18:44:03.486Z,101016.16
2023-04-13T18:46:30.492Z,101027.53
2023-04-13T18:48:57.439Z,101006.38
2023-04-13T18:51:24.184Z,101008.50
2023-04-13T18:53:51.011Z,101012.56
2023-04-13T18:56:17.824Z,101016.00
2023-04-13T18:58:45.083Z,101012.09
2023-04-13T19:01:16.762Z,101007.09
2023-04-13T19:03:43.874Z,100981.50
2023-04-13T19:06:11.391Z,101008.91
2023-04-13T19:08:38.913Z,100990.50
2023-04-13T19:11:05.725Z,100990.66
2023-04-13T19:13:32.497Z,101002.88
2023-04-13T19:15:59.419Z,100997.16
2023-04-13T19:18:26.182Z,100996.03
2023-04-13T19:20:53.073Z,101017.09
2023-04-13T19:23:19.861Z,100961.34
2023-04-13T19:25:47.733Z,100991.22
2023-04-13T19:28:14.533Z,101012.59
2023-04-13T19:30:41.515Z,101012.59
2023-04-13T19:33:08.237Z,101004.63
2023-04-13T19:35:35.110Z,101019.31
2023-04-13T19:38:02.052Z,100986.81
2023-04-13T19:40:29.234Z,100982.34
2023-04-13T19:42:56.179Z,101014.75
2023-04-13T19:45:24.332Z,100984.81
2023-04-13T19:47:53.016Z,101006.53
2023-04-13T19:50:19.842Z,101011.03
2023-04-13T19:52:47.684Z,101001.44
2023-04-13T19:55:14.457Z,100980.22
2023-04-13T19:57:42.948Z,100998.03
2023-04-13T20:00:17.465Z,101000.00
2023-04-13T20:02:45.378Z,100999.19
2023-04-13T20:05:12.508Z,101009.59
2023-04-13T20:07:39.397Z,101015.22
2023-04-13T20:10:07.826Z,100987.88
2023-04-13T20:12:34.652Z,101013.69
2023-04-13T20:15:01.530Z,101029.94
2023-04-13T20:17:28.317Z,101032.19
2023-04-13T20:19:55.502Z,101036.44
2023-04-13T20:22:22.423Z,101037.91
2023-04-13T20:24:49.203Z,101042.41
2023-04-13T20:27:16.048Z,101050.34
2023-04-13T20:29:42.940Z,101043.34
2023-04-13T20:32:09.770Z,101037.00
2023-04-13T20:34:36.652Z,101061.16
2023-04-13T20:37:03.484Z,101061.75
2023-04-13T20:39:30.635Z,101055.88
2023-04-13T20:41:57.940Z,101027.81
2023-04-13T20:44:25.028Z,101057.50
2023-04-13T20:46:55.185Z,101063.13
2023-04-13T20:49:25.736Z,101078.28
2023-04-13T20:51:56.110Z,101063.19
2023-04-13T20:54:23.477Z,101033.63
2023-04-13T20:56:50.644Z,101080.00
2023-04-13T20:59:18.352Z,101070.72
2023-04-13T21:01:45.722Z,101069.91
2023-04-13T21:04:12.997Z,101032.25
2023-04-13T21:06:40.675Z,101035.78
2023-04-13T21:09:08.706Z,101065.94
2023-04-13T21:11:35.884Z,100982.78
2023-04-13T21:14:03.078Z,101071.88
2023-04-13T21:16:30.181Z,101068.22
2023-04-13T21:18:57.320Z,101066.84
2023-04-13T21:21:25.126Z,101062.66
2023-04-13T21:23:52.726Z,101053.97
2023-04-13T21:26:20.401Z,101048.41
2023-04-13T21:28:47.311Z,101047.28
2023-04-13T21:31:14.255Z,101034.47
2023-04-13T21:33:41.338Z,101030.88
2023-04-13T21:38:40.011Z,101040.34
2023-04-13T21:41:07.335Z,100996.16
2023-04-13T21:43:34.474Z,101012.34
2023-04-13T21:46:01.428Z,100976.84
2023-04-13T21:48:28.385Z,101026.19
2023-04-13T21:50:55.310Z,101033.53
2023-04-13T21:53:22.157Z,101036.03
2023-04-13T21:55:49.205Z,101033.81
2023-04-13T21:58:16.161Z,100976.41
2023-04-13T22:00:43.064Z,101023.63
2023-04-13T22:03:12.453Z,101018.84
2023-04-13T22:05:40.674Z,100990.34
2023-04-13T22:08:07.577Z,101032.94
2023-04-13T22:10:34.517Z,100967.03
2023-04-13T22:13:01.348Z,100991.03
2023-04-13T22:15:28.252Z,101012.25
2023-04-13T22:17:55.236Z,101007.19
2023-04-13T22:20:22.036Z,100953.19
2023-04-13T22:22:48.789Z,101016.56
2023-04-13T22:25:15.801Z,101010.66
2023-04-13T22:27:42.555Z,101002.25
2023-04-13T22:30:09.806Z,100973.56
2023-04-13T22:32:36.855Z,101017.03
2023-04-13T22:35:04.853Z,100990.19
2023-04-13T22:37:31.794Z,100969.22
2023-04-13T22:40:01.204Z,100959.91
2023-04-13T22:42:28.439Z,100981.72
2023-04-13T22:44:55.191Z,100998.41
2023-04-13T22:47:22.027Z,100988.38
2023-04-13T22:49:49.358Z,100986.56
2023-04-13T22:52:19.454Z,100975.84
2023-04-13T22:54:46.943Z,100975.28
2023-04-13T22:57:13.686Z,100933.44
2023-04-13T22:59:40.970Z,100948.53
2023-04-13T23:02:07.865Z,100932.84
2023-04-13T23:04:35.026Z,100982.53
2023-04-13T23:07:01.939Z,100981.69
2023-04-13T23:09:28.959Z,100976.38
2023-04-13T23:11:55.857Z,100975.53
2023-04-13T23:14:23.943Z,100847.97
2023-04-13T23:16:50.832Z,100927.38
2023-04-13T23:19:18.787Z,100916.81
2023-04-13T23:21:48.788Z,100942.06
2023-04-13T23:24:15.602Z,100944.88
2023-04-13T23:26:42.494Z,100960.34
2023-04-13T23:29:09.424Z,100948.84
2023-04-13T23:31:36.210Z,100948.75
2023-04-13T23:34:03.024Z,100944.34
2023-04-13T23:36:29.880Z,100960.00
2023-04-13T23:38:56.601Z,100972.94
2023-04-13T23:41:23.707Z,100930.41
2023-04-13T23:43:51.878Z,100932.47
2023-04-13T23:46:18.737Z,100922.97
2023-04-13T23:48:45.582Z,100968.47
2023-04-13T23:51:12.440Z,100966.25
2023-04-13T23:53:39.157Z,100977.81
2023-04-13T23:56:06.678Z,100931.69
2023-04-13T23:58:33.570Z,100949.88
